Time;durP1;ratioP1;P1;durP2;ratioP2;P2;SDS_P1;SDS_P2;PMS_P1;PMS_P2;Temp;Humidity;BMP_temperature;BMP_pressure;BME280_temperature;BME280_humidity;BME280_pressure;Samples;Min_cycle;Max_cycle;Signal;HPM_P1;HPM_P2
2021/09/17 00:02:00;;;;;;;14.65;5.85;;;;;;;;;;4987583;28;20066;-71
2021/09/17 00:04:29;;;;;;;12.85;5.70;;;;;;;;;;4991185;28;20069;-71
2021/09/17 00:06:58;;;;;;;9.30;5.47;;;;;;;;;;4978033;28;20055;-71
2021/09/17 00:09:26;;;;;;;12.32;5.97;;;;;;;;;;4986442;28;20105;-73
2021/09/17 00:11:54;;;;;;;13.15;5.90;;;;;;;;;;4993209;28;20196;-75
2021/09/17 00:14:22;;;;;;;10.68;5.53;;;;;;;;;;4992156;28;20144;-72
2021/09/17 00:16:51;;;;;;;17.27;6.40;;;;;;;;;;4984092;28;20078;-71
2021/09/17 00:19:19;;;;;;;13.45;6.18;;;;;;;;;;4993364;28;20042;-71
2021/09/17 00:21:49;;;;;;;14.93;6.22;;;;;;;;;;4992454;28;20050;-73
2021/09/17 00:24:17;;;;;;;14.57;7.22;;;;;;;;;;4993293;28;20160;-73
2021/09/17 00:26:45;;;;;;;12.95;5.82;;;;;;;;;;4981353;28;20104;-71
2021/09/17 00:29:14;;;;;;;13.77;6.07;;;;;;;;;;4992780;28;20050;-71
2021/09/17 00:31:42;;;;;;;13.98;6.32;;;;;;;;;;4980273;28;20048;-71
2021/09/17 00:34:10;;;;;;;17.67;6.30;;;;;;;;;;4990588;28;20136;-71
2021/09/17 00:36:39;;;;;;;13.43;6.05;;;;;;;;;;4986898;28;20083;-71
2021/09/17 00:39:12;;;;;;;12.90;6.18;;;;;;;;;;4977248;28;20137;-71
2021/09/17 00:41:41;;;;;;;12.23;5.72;;;;;;;;;;4992627;28;20493;-71
2021/09/17 00:44:09;;;;;;;13.57;5.88;;;;;;;;;;4990620;28;20050;-71
2021/09/17 00:46:37;;;;;;;17.67;5.78;;;;;;;;;;4973420;28;20043;-71
2021/09/17 00:49:06;;;;;;;11.18;5.35;;;;;;;;;;4991928;28;20459;-71
2021/09/17 00:51:34;;;;;;;14.90;5.93;;;;;;;;;;4987613;28;20460;-71
2021/09/17 00:54:02;;;;;;;14.88;6.10;;;;;;;;;;4975120;28;20046;-71
2021/09/17 00:56:33;;;;;;;14.63;5.60;;;;;;;;;;4992569;28;20141;-72
2021/09/17 00:59:01;;;;;;;13.52;6.30;;;;;;;;;;4992069;28;20039;-71
2021/09/17 01:01:29;;;;;;;14.40;5.90;;;;;;;;;;4991860;28;20045;-71
2021/09/17 01:04:02;;;;;;;14.93;5.93;;;;;;;;;;4986859;28;20137;-71
2021/09/17 01:06:31;;;;;;;12.75;5.57;;;;;;;;;;4987867;28;20479;-70
2021/09/17 01:09:01;;;;;;;14.60;6.53;;;;;;;;;;4977754;28;20093;-69
2021/09/17 01:11:30;;;;;;;15.55;6.43;;;;;;;;;;4988491;28;20046;-70
2021/09/17 01:13:59;;;;;;;14.40;6.20;;;;;;;;;;4990591;28;20137;-70
2021/09/17 01:16:28;;;;;;;12.18;6.18;;;;;;;;;;4978127;28;20125;-72
2021/09/17 01:18:56;;;;;;;12.77;6.07;;;;;;;;;;4991739;28;20106;-69
2021/09/17 01:21:26;;;;;;;12.30;6.05;;;;;;;;;;4992189;28;20498;-70
2021/09/17 01:23:55;;;;;;;14.70;6.53;;;;;;;;;;4982171;28;20082;-70
2021/09/17 01:26:23;;;;;;;13.27;6.18;;;;;;;;;;4991140;28;20129;-72
2021/09/17 01:28:51;;;;;;;17.02;6.45;;;;;;;;;;4992271;28;20169;-70
2021/09/17 01:31:20;;;;;;;14.82;6.75;;;;;;;;;;4974529;28;20381;-70
2021/09/17 01:33:48;;;;;;;11.48;6.18;;;;;;;;;;4980927;28;20046;-71
2021/09/17 01:36:16;;;;;;;13.52;5.95;;;;;;;;;;4988049;28;20483;-70
2021/09/17 01:38:46;;;;;;;14.13;6.65;;;;;;;;;;4981769;28;20073;-70
2021/09/17 01:41:14;;;;;;;14.70;6.07;;;;;;;;;;4989216;28;20514;-70
2021/09/17 01:43:42;;;;;;;11.05;5.55;;;;;;;;;;4983183;28;20137;-75
2021/09/17 01:46:11;;;;;;;13.20;5.93;;;;;;;;;;4975435;28;20050;-70
2021/09/17 01:48:43;;;;;;;13.02;5.30;;;;;;;;;;4984378;28;20109;-70
2021/09/17 01:51:11;;;;;;;13.85;6.00;;;;;;;;;;4989955;28;20097;-69
2021/09/17 01:53:40;;;;;;;14.27;5.60;;;;;;;;;;4973872;28;20082;-70
2021/09/17 01:56:09;;;;;;;13.13;5.97;;;;;;;;;;4976341;28;20085;-71
2021/09/17 01:58:38;;;;;;;10.23;5.18;;;;;;;;;;4991117;28;20481;-70
2021/09/17 02:01:06;;;;;;;11.38;5.43;;;;;;;;;;4986873;28;20077;-70
2021/09/17 02:03:35;;;;;;;12.73;6.13;;;;;;;;;;4978129;28;20065;-71
2021/09/17 02:06:03;;;;;;;15.35;5.82;;;;;;;;;;4984084;28;20053;-70
2021/09/17 02:08:32;;;;;;;12.57;6.00;;;;;;;;;;4972304;28;20511;-72
2021/09/17 02:11:00;;;;;;;13.45;5.53;;;;;;;;;;4985314;28;20046;-71
2021/09/17 02:13:30;;;;;;;13.35;5.53;;;;;;;;;;4980966;28;20043;-70
2021/09/17 02:15:58;;;;;;;10.40;5.35;;;;;;;;;;4991646;28;20054;-71
2021/09/17 02:18:26;;;;;;;13.25;5.40;;;;;;;;;;4988315;28;20130;-70
2021/09/17 02:20:55;;;;;;;11.23;5.70;;;;;;;;;;4981419;28;20057;-70
2021/09/17 02:23:23;;;;;;;9.23;4.72;;;;;;;;;;4996882;28;20431;-72
2021/09/17 02:25:51;;;;;;;10.88;5.57;;;;;;;;;;4995522;28;20053;-70
2021/09/17 02:28:20;;;;;;;12.55;4.88;;;;;;;;;;4997892;28;20133;-71
2021/09/17 02:30:49;;;;;;;9.77;4.65;;;;;;;;;;4997016;28;20109;-70
2021/09/17 02:33:18;;;;;;;11.15;5.22;;;;;;;;;;4996515;28;20535;-72
2021/09/17 02:35:46;;;;;;;10.68;5.05;;;;;;;;;;4988826;28;20054;-70
2021/09/17 02:38:15;;;;;;;9.45;4.95;;;;;;;;;;4987001;28;20054;-70
2021/09/17 02:40:43;;;;;;;9.73;5.03;;;;;;;;;;4980556;28;20388;-70
2021/09/17 02:43:12;;;;;;;12.15;5.53;;;;;;;;;;4997459;28;20100;-70
2021/09/17 02:45:40;;;;;;;11.38;5.10;;;;;;;;;;4983953;28;20098;-69
2021/09/17 02:48:10;;;;;;;11.02;5.63;;;;;;;;;;4979963;28;20089;-70
2021/09/17 02:50:38;;;;;;;11.85;5.38;;;;;;;;;;4981742;28;20491;-71
2021/09/17 02:53:07;;;;;;;10.40;4.95;;;;;;;;;;4996819;28;20525;-69
2021/09/17 02:55:35;;;;;;;9.20;4.70;;;;;;;;;;4984558;28;20122;-70
2021/09/17 02:58:05;;;;;;;12.30;5.45;;;;;;;;;;4988682;28;20073;-71
2021/09/17 03:00:34;;;;;;;11.23;5.90;;;;;;;;;;4996762;28;20133;-71
2021/09/17 03:03:02;;;;;;;9.02;4.85;;;;;;;;;;4994442;28;20084;-72
2021/09/17 03:05:32;;;;;;;12.57;5.25;;;;;;;;;;4994744;28;20140;-70
2021/09/17 03:08:00;;;;;;;12.90;5.00;;;;;;;;;;4984404;28;20134;-71
2021/09/17 03:10:29;;;;;;;12.38;5.78;;;;;;;;;;4990803;28;20454;-70
2021/09/17 03:12:59;;;;;;;13.50;5.60;;;;;;;;;;4989428;28;20129;-69
2021/09/17 03:15:28;;;;;;;12.02;5.38;;;;;;;;;;4982832;28;20134;-69
2021/09/17 03:17:56;;;;;;;11.95;4.65;;;;;;;;;;4987222;28;20074;-70
2021/09/17 03:20:24;;;;;;;11.50;5.22;;;;;;;;;;4997838;28;20085;-71
2021/09/17 03:22:54;;;;;;;11.80;5.15;;;;;;;;;;4996078;28;20093;-69
2021/09/17 03:25:22;;;;;;;10.93;4.88;;;;;;;;;;4993470;28;20052;-70
2021/09/17 03:27:59;;;;;;;11.30;5.36;;;;;;;;;;4853668;28;10000930;-71
2021/09/17 03:30:27;;;;;;;11.13;5.28;;;;;;;;;;684422;28;10001980;-70
2021/09/17 03:32:55;;;;;;;16.30;5.75;;;;;;;;;;4990685;28;20054;-70
2021/09/17 03:35:24;;;;;;;12.52;5.47;;;;;;;;;;4980872;28;20513;-71
2021/09/17 03:37:53;;;;;;;12.93;5.35;;;;;;;;;;4985969;28;20094;-69
2021/09/17 03:40:22;;;;;;;11.90;5.20;;;;;;;;;;4993606;28;20141;-69
2021/09/17 03:42:50;;;;;;;10.80;5.65;;;;;;;;;;4983695;28;20141;-69
2021/09/17 03:45:18;;;;;;;10.38;4.95;;;;;;;;;;4986160;28;20494;-70
2021/09/17 03:47:47;;;;;;;10.70;4.78;;;;;;;;;;4990209;28;20555;-69
2021/09/17 03:50:18;;;;;;;12.77;5.47;;;;;;;;;;4992729;28;20064;-69
2021/09/17 03:52:46;;;;;;;10.98;6.35;;;;;;;;;;4990255;28;20080;-71
2021/09/17 03:55:15;;;;;;;11.50;5.38;;;;;;;;;;4993320;28;20064;-69
2021/09/17 03:57:44;;;;;;;12.90;5.50;;;;;;;;;;4991765;28;20566;-70
2021/09/17 04:00:13;;;;;;;15.55;6.22;;;;;;;;;;4993064;28;20150;-69
2021/09/17 04:02:41;;;;;;;12.82;5.78;;;;;;;;;;4993023;28;20120;-69
2021/09/17 04:05:10;;;;;;;14.93;5.78;;;;;;;;;;4992610;28;20062;-69
2021/09/17 04:07:39;;;;;;;11.57;5.22;;;;;;;;;;4986945;28;20467;-70
2021/09/17 04:10:08;;;;;;;12.07;5.25;;;;;;;;;;4984225;28;20047;-71
2021/09/17 04:12:38;;;;;;;12.80;6.43;;;;;;;;;;4986573;28;20096;-70
2021/09/17 04:15:06;;;;;;;11.40;5.20;;;;;;;;;;4976873;28;20190;-69
2021/09/17 04:17:35;;;;;;;11.35;5.45;;;;;;;;;;4983383;28;20089;-70
2021/09/17 04:20:03;;;;;;;13.35;5.60;;;;;;;;;;4984924;28;20171;-69
2021/09/17 04:22:31;;;;;;;9.88;5.43;;;;;;;;;;4993923;28;20054;-72
2021/09/17 04:25:00;;;;;;;11.70;5.82;;;;;;;;;;4990935;28;20054;-69
2021/09/17 04:27:29;;;;;;;12.35;5.72;;;;;;;;;;4992860;28;20090;-69
2021/09/17 04:29:59;;;;;;;11.85;5.82;;;;;;;;;;4988659;28;20125;-69
2021/09/17 04:32:27;;;;;;;14.32;7.07;;;;;;;;;;4994174;28;20081;-68
2021/09/17 04:34:55;;;;;;;11.10;5.88;;;;;;;;;;4990235;28;20123;-69
2021/09/17 04:37:24;;;;;;;10.35;5.28;;;;;;;;;;4990361;28;20093;-74
2021/09/17 04:39:52;;;;;;;13.50;5.82;;;;;;;;;;4983289;28;20417;-70
2021/09/17 04:42:20;;;;;;;14.13;5.50;;;;;;;;;;4988546;28;20072;-70
2021/09/17 04:44:51;;;;;;;12.85;6.05;;;;;;;;;;4991428;28;20077;-69
2021/09/17 04:47:20;;;;;;;13.73;5.93;;;;;;;;;;4976624;28;20550;-69
2021/09/17 04:49:48;;;;;;;14.63;6.10;;;;;;;;;;4990916;28;20082;-69
2021/09/17 04:52:22;;;;;;;12.65;6.57;;;;;;;;;;4991810;28;20070;-70
2021/09/17 04:54:51;;;;;;;13.63;6.32;;;;;;;;;;4985210;28;20153;-69
2021/09/17 04:57:20;;;;;;;12.88;6.10;;;;;;;;;;4988524;28;20085;-70
2021/09/17 04:59:48;;;;;;;12.43;6.25;;;;;;;;;;4988930;28;20133;-70
2021/09/17 05:02:16;;;;;;;13.63;6.65;;;;;;;;;;4982496;28;20132;-70
2021/09/17 05:04:46;;;;;;;12.80;5.97;;;;;;;;;;4979022;28;20062;-69
2021/09/17 05:07:14;;;;;;;15.75;6.50;;;;;;;;;;4985850;28;20128;-71
2021/09/17 05:09:43;;;;;;;14.88;6.05;;;;;;;;;;4975776;28;20078;-69
2021/09/17 05:12:11;;;;;;;12.65;6.32;;;;;;;;;;4976825;28;20554;-72
2021/09/17 05:14:40;;;;;;;11.80;5.80;;;;;;;;;;4983646;28;20576;-71
2021/09/17 05:17:08;;;;;;;14.38;6.53;;;;;;;;;;4982316;28;20058;-71
2021/09/17 05:19:36;;;;;;;15.88;6.22;;;;;;;;;;4984728;28;20086;-72
2021/09/17 05:22:06;;;;;;;14.15;5.88;;;;;;;;;;4973421;28;20101;-71
2021/09/17 05:24:35;;;;;;;11.80;6.22;;;;;;;;;;4982582;28;20166;-72
2021/09/17 05:27:03;;;;;;;14.82;6.25;;;;;;;;;;4989079;28;20056;-70
2021/09/17 05:29:32;;;;;;;18.02;7.03;;;;;;;;;;4976593;28;20056;-70
2021/09/17 05:32:00;;;;;;;12.57;6.10;;;;;;;;;;4981527;28;20093;-71
2021/09/17 05:34:29;;;;;;;15.20;6.53;;;;;;;;;;4978134;28;20133;-71
2021/09/17 05:36:57;;;;;;;14.95;6.65;;;;;;;;;;4982199;28;20137;-71
2021/09/17 05:39:27;;;;;;;15.88;7.20;;;;;;;;;;4977618;28;20058;-72
2021/09/17 05:41:55;;;;;;;12.57;6.25;;;;;;;;;;4983366;28;20070;-71
2021/09/17 05:44:23;;;;;;;12.40;6.10;;;;;;;;;;4984676;28;20157;-71
2021/09/17 05:46:52;;;;;;;14.02;7.10;;;;;;;;;;4988504;28;20069;-71
2021/09/17 05:49:21;;;;;;;15.15;7.00;;;;;;;;;;4984806;28;20139;-71
2021/09/17 05:51:49;;;;;;;17.35;6.90;;;;;;;;;;4987053;28;20058;-69
2021/09/17 05:54:18;;;;;;;15.90;6.07;;;;;;;;;;4981324;28;20291;-72
2021/09/17 05:56:48;;;;;;;17.15;7.05;;;;;;;;;;4987010;28;20072;-70
2021/09/17 05:59:17;;;;;;;16.13;7.10;;;;;;;;;;4977209;28;20092;-72
2021/09/17 06:01:46;;;;;;;21.30;7.25;;;;;;;;;;4984079;28;20165;-71
2021/09/17 06:04:15;;;;;;;15.70;7.05;;;;;;;;;;4970847;28;20066;-70
2021/09/17 06:06:46;;;;;;;15.65;7.35;;;;;;;;;;4981934;28;20404;-69
2021/09/17 06:09:15;;;;;;;14.23;6.43;;;;;;;;;;4984292;28;20761;-70
2021/09/17 06:11:43;;;;;;;14.32;6.95;;;;;;;;;;4986887;28;20053;-71
2021/09/17 06:14:13;;;;;;;18.45;6.93;;;;;;;;;;4982170;28;20050;-70
2021/09/17 06:16:43;;;;;;;16.63;7.40;;;;;;;;;;4971784;28;20050;-70
2021/09/17 06:19:12;;;;;;;13.63;6.50;;;;;;;;;;4979458;28;20050;-73
2021/09/17 06:21:41;;;;;;;15.45;6.75;;;;;;;;;;4976860;28;20046;-73
2021/09/17 06:24:10;;;;;;;16.50;6.97;;;;;;;;;;4966269;28;20050;-71
2021/09/17 06:26:38;;;;;;;12.70;6.47;;;;;;;;;;4973513;28;20046;-71
2021/09/17 06:29:11;;;;;;;14.18;6.63;;;;;;;;;;4966680;28;20080;-74
2021/09/17 06:31:42;;;;;;;14.90;6.72;;;;;;;;;;4987148;28;20089;-72
2021/09/17 06:34:11;;;;;;;18.00;6.93;;;;;;;;;;4982046;28;20047;-72
2021/09/17 06:36:40;;;;;;;14.77;6.85;;;;;;;;;;4974782;28;20059;-76
2021/09/17 06:39:09;;;;;;;15.15;6.90;;;;;;;;;;4977136;28;20538;-72
2021/09/17 06:41:38;;;;;;;13.13;7.05;;;;;;;;;;4986052;28;20113;-71
2021/09/17 06:44:09;;;;;;;14.07;7.55;;;;;;;;;;4981575;28;20134;-70
2021/09/17 06:46:39;;;;;;;13.52;6.55;;;;;;;;;;4979498;28;20050;-74
2021/09/17 06:49:11;;;;;;;15.80;7.07;;;;;;;;;;4984835;28;20568;-69
2021/09/17 06:51:40;;;;;;;16.85;7.30;;;;;;;;;;4985061;28;20113;-72
2021/09/17 06:54:09;;;;;;;16.52;6.85;;;;;;;;;;4986511;28;20050;-71
2021/09/17 06:56:38;;;;;;;18.95;7.35;;;;;;;;;;4989963;28;20537;-73
2021/09/17 06:59:07;;;;;;;14.20;6.47;;;;;;;;;;4990766;28;20137;-72
2021/09/17 07:01:36;;;;;;;13.93;7.15;;;;;;;;;;4988875;28;20570;-76
2021/09/17 07:04:06;;;;;;;14.85;7.60;;;;;;;;;;4981924;28;20085;-71
2021/09/17 07:06:37;;;;;;;15.60;6.80;;;;;;;;;;4989564;28;20045;-79
2021/09/17 07:09:06;;;;;;;13.05;6.85;;;;;;;;;;4976939;28;20050;-71
2021/09/17 07:11:35;;;;;;;11.65;6.32;;;;;;;;;;4991143;28;20117;-71
2021/09/17 07:14:04;;;;;;;15.45;6.97;;;;;;;;;;4991788;28;20489;-70
2021/09/17 07:16:35;;;;;;;14.05;6.97;;;;;;;;;;4990668;28;20071;-74
2021/09/17 07:19:07;;;;;;;14.45;7.18;;;;;;;;;;4985154;28;20113;-70
2021/09/17 07:21:38;;;;;;;13.10;6.07;;;;;;;;;;4991539;28;20061;-72
2021/09/17 07:24:07;;;;;;;16.27;7.47;;;;;;;;;;4978866;28;20109;-70
2021/09/17 07:26:36;;;;;;;13.73;6.97;;;;;;;;;;4985835;28;20130;-77
2021/09/17 07:29:05;;;;;;;12.82;6.78;;;;;;;;;;4985263;28;20085;-70
2021/09/17 07:31:34;;;;;;;15.38;6.97;;;;;;;;;;4992830;28;20523;-72
2021/09/17 07:34:04;;;;;;;13.43;7.15;;;;;;;;;;4988425;28;20048;-72
2021/09/17 07:36:34;;;;;;;14.25;6.90;;;;;;;;;;4992935;28;20129;-71
2021/09/17 07:39:05;;;;;;;11.18;6.00;;;;;;;;;;4992250;28;20062;-72
2021/09/17 07:41:34;;;;;;;14.07;6.45;;;;;;;;;;4990695;28;20491;-73
2021/09/17 07:44:04;;;;;;;14.40;7.25;;;;;;;;;;4976545;28;20078;-70
2021/09/17 07:46:34;;;;;;;12.43;6.82;;;;;;;;;;4979881;28;20109;-74
2021/09/17 07:49:10;;;;;;;11.80;6.15;;;;;;;;;;4983451;28;20402;-73
2021/09/17 07:51:39;;;;;;;12.38;6.40;;;;;;;;;;4975061;28;20467;-70
2021/09/17 07:54:09;;;;;;;15.77;7.15;;;;;;;;;;4971880;28;20050;-73
2021/09/17 07:56:38;;;;;;;15.50;7.18;;;;;;;;;;4979385;28;20086;-72
2021/09/17 07:59:07;;;;;;;13.90;7.10;;;;;;;;;;4984039;28;20046;-72
2021/09/17 08:01:44;;;;;;;11.60;6.25;;;;;;;;;;4983451;28;20195;-71
2021/09/17 08:04:13;;;;;;;12.82;6.72;;;;;;;;;;4959770;28;20050;-72
2021/09/17 08:06:44;;;;;;;13.75;6.88;;;;;;;;;;4969866;28;20059;-73
2021/09/17 08:09:15;;;;;;;11.05;6.05;;;;;;;;;;4963063;28;20075;-70
2021/09/17 08:11:44;;;;;;;14.00;6.95;;;;;;;;;;4970040;28;20059;-72
2021/09/17 08:14:16;;;;;;;12.52;6.72;;;;;;;;;;4965471;28;20566;-71
2021/09/17 08:16:46;;;;;;;10.77;6.38;;;;;;;;;;4969634;28;20137;-69
2021/09/17 08:19:15;;;;;;;12.70;6.75;;;;;;;;;;4962219;28;20384;-70
2021/09/17 08:21:45;;;;;;;12.27;6.75;;;;;;;;;;4960568;28;20310;-70
2021/09/17 08:24:16;;;;;;;11.68;6.35;;;;;;;;;;4963417;28;20051;-73
2021/09/17 08:26:50;;;;;;;16.17;7.38;;;;;;;;;;4960308;28;20047;-70
2021/09/17 08:29:20;;;;;;;15.45;6.70;;;;;;;;;;4960793;28;20051;-74
2021/09/17 08:31:50;;;;;;;13.93;6.55;;;;;;;;;;4968022;28;20154;-68
2021/09/17 08:34:20;;;;;;;9.52;6.13;;;;;;;;;;4968480;28;20443;-69
2021/09/17 08:36:49;;;;;;;10.52;5.85;;;;;;;;;;4962605;28;20062;-70
2021/09/17 08:39:19;;;;;;;12.65;6.22;;;;;;;;;;4968373;28;20113;-68
2021/09/17 08:41:48;;;;;;;11.80;6.40;;;;;;;;;;4972033;28;20112;-70
2021/09/17 08:44:17;;;;;;;13.48;6.97;;;;;;;;;;4969252;28;20098;-69
2021/09/17 08:46:46;;;;;;;12.68;6.32;;;;;;;;;;4963863;28;20102;-69
2021/09/17 08:49:20;;;;;;;13.75;6.57;;;;;;;;;;4974272;28;20047;-69
2021/09/17 08:51:49;;;;;;;10.45;5.85;;;;;;;;;;4974742;28;20065;-69
2021/09/17 08:54:20;;;;;;;12.57;6.35;;;;;;;;;;4963283;28;20061;-73
2021/09/17 08:56:50;;;;;;;11.45;6.40;;;;;;;;;;4971701;28;20054;-69
2021/09/17 08:59:20;;;;;;;13.63;7.13;;;;;;;;;;4957249;28;20400;-69
2021/09/17 09:01:49;;;;;;;10.88;5.35;;;;;;;;;;4955290;28;20093;-68
2021/09/17 09:04:29;;;;;;;10.50;6.18;;;;;;;;;;4960829;28;20518;-70
2021/09/17 09:07:05;;;;;;;13.25;6.63;;;;;;;;;;4990986;28;20054;-69
2021/09/17 09:09:35;;;;;;;14.10;7.15;;;;;;;;;;4977173;28;20077;-68
2021/09/17 09:12:06;;;;;;;14.25;6.78;;;;;;;;;;4984694;28;20595;-69
2021/09/17 09:14:35;;;;;;;11.20;6.38;;;;;;;;;;4985168;28;20415;-70
2021/09/17 09:17:04;;;;;;;13.73;6.30;;;;;;;;;;4979567;28;20057;-69
2021/09/17 09:19:37;;;;;;;13.55;7.03;;;;;;;;;;4990814;28;20092;-68
2021/09/17 09:22:14;;;;;;;12.75;6.38;;;;;;;;;;4982433;28;20050;-68
2021/09/17 09:24:45;;;;;;;14.70;7.05;;;;;;;;;;4985395;28;20043;-70
2021/09/17 09:27:14;;;;;;;11.85;6.65;;;;;;;;;;4990243;28;20403;-68
2021/09/17 09:29:44;;;;;;;11.55;6.28;;;;;;;;;;4985330;28;20062;-69
2021/09/17 09:32:25;;;;;;;10.95;6.25;;;;;;;;;;4977739;28;20073;-69
2021/09/17 09:34:55;;;;;;;11.98;6.32;;;;;;;;;;4984218;28;20047;-70
2021/09/17 09:37:24;;;;;;;10.02;5.82;;;;;;;;;;4984685;28;20086;-68
2021/09/17 09:39:56;;;;;;;12.93;6.10;;;;;;;;;;4988762;28;20081;-68
2021/09/17 09:42:36;;;;;;;10.63;5.55;;;;;;;;;;4978962;28;20068;-73
2021/09/17 09:45:07;;;;;;;10.52;6.00;;;;;;;;;;4971108;28;20054;-70
2021/09/17 09:47:36;;;;;;;10.57;5.13;;;;;;;;;;4988809;28;20133;-69
2021/09/17 09:50:06;;;;;;;9.90;5.43;;;;;;;;;;4985400;28;20450;-69
2021/09/17 09:52:34;;;;;;;11.07;5.55;;;;;;;;;;4984238;28;20490;-68
2021/09/17 09:55:06;;;;;;;7.68;4.07;;;;;;;;;;4983355;28;20046;-71
2021/09/17 09:57:34;;;;;;;11.15;6.18;;;;;;;;;;4982443;28;20050;-69
2021/09/17 10:00:07;;;;;;;6.53;3.95;;;;;;;;;;4977992;28;20084;-69
2021/09/17 10:02:36;;;;;;;8.48;4.28;;;;;;;;;;4977002;28;20088;-70
2021/09/17 10:05:07;;;;;;;9.85;5.38;;;;;;;;;;4988338;28;20104;-73
2021/09/17 10:07:36;;;;;;;10.00;5.45;;;;;;;;;;4982128;28;20886;-68
2021/09/17 10:10:07;;;;;;;8.50;4.35;;;;;;;;;;4983483;28;20502;-71
2021/09/17 10:12:36;;;;;;;15.57;5.03;;;;;;;;;;4983301;28;20057;-69
2021/09/17 10:15:07;;;;;;;8.05;4.57;;;;;;;;;;4988857;28;20554;-72
2021/09/17 10:17:39;;;;;;;6.65;4.07;;;;;;;;;;4978016;28;20070;-68
2021/09/17 10:20:09;;;;;;;6.55;3.70;;;;;;;;;;4979370;28;20050;-69
2021/09/17 10:22:38;;;;;;;7.80;3.95;;;;;;;;;;4982459;28;20069;-70
2021/09/17 10:25:13;;;;;;;7.18;4.07;;;;;;;;;;4979721;28;20068;-69
2021/09/17 10:27:44;;;;;;;7.50;3.65;;;;;;;;;;4979347;28;20097;-73
2021/09/17 10:30:13;;;;;;;6.13;3.10;;;;;;;;;;4984087;28;20077;-71
2021/09/17 10:32:43;;;;;;;7.45;2.88;;;;;;;;;;4978637;28;20113;-71
2021/09/17 10:35:13;;;;;;;6.03;2.67;;;;;;;;;;4978428;28;20141;-72
2021/09/17 10:37:57;;;;;;;5.68;2.88;;;;;;;;;;4985930;28;20078;-71
2021/09/17 10:40:39;;;;;;;5.00;3.05;;;;;;;;;;4983589;28;20054;-72
2021/09/17 10:43:15;;;;;;;7.95;4.30;;;;;;;;;;4983240;28;20054;-71
2021/09/17 10:45:45;;;;;;;10.38;2.90;;;;;;;;;;4986028;28;20074;-71
2021/09/17 10:48:15;;;;;;;4.90;2.40;;;;;;;;;;4984326;28;20509;-72
2021/09/17 10:50:45;;;;;;;3.72;2.47;;;;;;;;;;4976428;28;20166;-72
2021/09/17 10:53:15;;;;;;;4.72;2.35;;;;;;;;;;4980775;28;20042;-71
2021/09/17 10:56:04;;;;;;;2.03;1.60;;;;;;;;;;4990295;28;20348;-71
2021/09/17 10:58:34;;;;;;;2.90;1.98;;;;;;;;;;4990175;28;20046;-71
2021/09/17 11:01:04;;;;;;;4.38;2.13;;;;;;;;;;4992523;28;20062;-71
2021/09/17 11:03:49;;;;;;;2.70;1.65;;;;;;;;;;4983216;28;20070;-71
2021/09/17 11:06:26;;;;;;;2.55;1.55;;;;;;;;;;4978990;28;20047;-73
2021/09/17 11:08:56;;;;;;;2.75;1.60;;;;;;;;;;4987495;28;20046;-71
2021/09/17 11:11:27;;;;;;;2.45;1.50;;;;;;;;;;4989609;28;20502;-71
2021/09/17 11:13:57;;;;;;;2.22;1.30;;;;;;;;;;4989883;28;20065;-74
2021/09/17 11:16:27;;;;;;;1.45;1.08;;;;;;;;;;4985981;28;20047;-72
2021/09/17 11:19:00;;;;;;;1.85;1.55;;;;;;;;;;4978904;28;20426;-73
2021/09/17 11:21:29;;;;;;;1.27;1.02;;;;;;;;;;4983542;28;20051;-71
2021/09/17 11:23:58;;;;;;;1.65;1.13;;;;;;;;;;4990072;28;20042;-71
2021/09/17 11:26:30;;;;;;;1.77;1.17;;;;;;;;;;4987099;28;20145;-75
2021/09/17 11:29:04;;;;;;;1.30;1.20;;;;;;;;;;4988524;28;20061;-71
2021/09/17 11:31:34;;;;;;;1.98;1.30;;;;;;;;;;4977774;28;20054;-73
2021/09/17 11:34:04;;;;;;;2.40;1.40;;;;;;;;;;4983398;28;20083;-71
2021/09/17 11:36:37;;;;;;;3.20;1.55;;;;;;;;;;4985495;28;20042;-71
2021/09/17 11:39:16;;;;;;;2.08;1.40;;;;;;;;;;4986654;28;20050;-72
2021/09/17 11:41:51;;;;;;;2.38;1.60;;;;;;;;;;4981973;28;20323;-72
2021/09/17 11:44:30;;;;;;;2.25;1.45;;;;;;;;;;4987553;28;20058;-71
2021/09/17 11:47:00;;;;;;;3.17;1.40;;;;;;;;;;4983704;28;20141;-73
2021/09/17 11:49:30;;;;;;;2.38;1.40;;;;;;;;;;4987877;28;20061;-71
2021/09/17 11:52:00;;;;;;;2.60;1.30;;;;;;;;;;4982478;28;20052;-71
2021/09/17 11:54:29;;;;;;;1.33;1.00;;;;;;;;;;4982540;28;20120;-72
2021/09/17 11:57:07;;;;;;;1.67;1.20;;;;;;;;;;4989453;28;20054;-71
2021/09/17 11:59:37;;;;;;;1.77;1.40;;;;;;;;;;4984673;28;20187;-72
2021/09/17 12:02:12;;;;;;;1.80;1.15;;;;;;;;;;4986932;28;20054;-73
2021/09/17 12:04:43;;;;;;;2.78;1.40;;;;;;;;;;4987529;28;20070;-74
2021/09/17 12:07:12;;;;;;;2.35;1.33;;;;;;;;;;4985362;28;20050;-74
2021/09/17 12:09:42;;;;;;;1.52;1.27;;;;;;;;;;4989323;28;20062;-74
2021/09/17 12:12:13;;;;;;;1.45;1.20;;;;;;;;;;4983279;28;20057;-74
2021/09/17 12:14:50;;;;;;;2.10;1.38;;;;;;;;;;4981395;28;20050;-72
2021/09/17 12:17:19;;;;;;;2.67;1.48;;;;;;;;;;4981889;28;20054;-70
2021/09/17 12:19:55;;;;;;;3.08;1.75;;;;;;;;;;4989094;28;20872;-73
2021/09/17 12:22:34;;;;;;;4.68;1.55;;;;;;;;;;4985411;28;20069;-72
2021/09/17 12:25:08;;;;;;;3.65;1.73;;;;;;;;;;4985649;28;20046;-71
2021/09/17 12:27:40;;;;;;;2.42;1.73;;;;;;;;;;4984461;28;20038;-73
2021/09/17 12:30:10;;;;;;;1.60;1.35;;;;;;;;;;4983544;28;20053;-72
2021/09/17 12:32:39;;;;;;;4.10;1.80;;;;;;;;;;4977628;28;20046;-71
2021/09/17 12:35:09;;;;;;;2.58;1.60;;;;;;;;;;4987654;28;20058;-72
2021/09/17 12:37:39;;;;;;;4.00;1.63;;;;;;;;;;4972767;28;20051;-72
2021/09/17 12:40:09;;;;;;;2.35;2.00;;;;;;;;;;4980560;28;20058;-72
2021/09/17 12:42:39;;;;;;;2.33;1.65;;;;;;;;;;4979310;28;20051;-73
2021/09/17 12:45:08;;;;;;;2.67;1.60;;;;;;;;;;4983006;28;20841;-74
2021/09/17 12:47:37;;;;;;;4.18;2.00;;;;;;;;;;4976792;28;20046;-71
2021/09/17 12:50:10;;;;;;;3.42;1.60;;;;;;;;;;4986003;28;20495;-72
2021/09/17 12:52:39;;;;;;;3.38;1.77;;;;;;;;;;4980354;28;20462;-77
2021/09/17 12:55:22;;;;;;;1.88;1.60;;;;;;;;;;4981822;28;20050;-72
2021/09/17 12:57:58;;;;;;;2.20;1.60;;;;;;;;;;4987382;28;20064;-74
2021/09/17 13:00:28;;;;;;;2.22;1.70;;;;;;;;;;4988326;28;20053;-73
2021/09/17 13:02:57;;;;;;;2.92;1.88;;;;;;;;;;4987440;28;20279;-73
2021/09/17 13:05:26;;;;;;;2.45;1.70;;;;;;;;;;4978441;28;20057;-73
2021/09/17 13:07:55;;;;;;;2.47;1.70;;;;;;;;;;4976845;28;20051;-71
2021/09/17 13:10:24;;;;;;;2.80;1.50;;;;;;;;;;4983468;28;20050;-73
2021/09/17 13:12:52;;;;;;;1.77;1.50;;;;;;;;;;4977764;28;20676;-73
2021/09/17 13:15:22;;;;;;;3.72;2.00;;;;;;;;;;4983286;28;20054;-72
2021/09/17 13:17:52;;;;;;;1.90;1.48;;;;;;;;;;4984340;28;20124;-75
2021/09/17 13:20:21;;;;;;;1.75;1.52;;;;;;;;;;4981101;28;20124;-72
2021/09/17 13:22:50;;;;;;;2.25;1.70;;;;;;;;;;4987916;28;20129;-70
2021/09/17 13:25:19;;;;;;;1.88;1.45;;;;;;;;;;4986879;28;20069;-72
2021/09/17 13:27:50;;;;;;;3.72;1.45;;;;;;;;;;4975682;28;20050;-74
2021/09/17 13:30:19;;;;;;;1.98;1.48;;;;;;;;;;4983482;28;20451;-72
2021/09/17 13:32:49;;;;;;;2.97;1.50;;;;;;;;;;4972368;28;20061;-74
2021/09/17 13:35:18;;;;;;;2.80;1.60;;;;;;;;;;4984375;28;20054;-71
2021/09/17 13:37:47;;;;;;;2.72;1.60;;;;;;;;;;4980244;28;20113;-73
2021/09/17 13:40:17;;;;;;;2.97;1.95;;;;;;;;;;4974493;28;20086;-72
2021/09/17 13:42:47;;;;;;;5.20;1.83;;;;;;;;;;4975665;28;20046;-73
2021/09/17 13:45:17;;;;;;;3.42;1.85;;;;;;;;;;4986550;28;20307;-73
2021/09/17 13:47:46;;;;;;;2.70;1.90;;;;;;;;;;4975638;28;20133;-73
2021/09/17 13:50:17;;;;;;;2.58;1.83;;;;;;;;;;4980283;28;20050;-74
2021/09/17 13:52:46;;;;;;;3.00;1.80;;;;;;;;;;4977799;28;20157;-75
2021/09/17 13:55:16;;;;;;;2.65;1.80;;;;;;;;;;4978471;28;20141;-71
2021/09/17 13:57:44;;;;;;;4.78;2.08;;;;;;;;;;4982820;28;20077;-70
2021/09/17 14:00:13;;;;;;;2.67;1.80;;;;;;;;;;4982703;28;20120;-70
2021/09/17 14:02:42;;;;;;;2.08;1.77;;;;;;;;;;4979473;28;20050;-70
2021/09/17 14:05:12;;;;;;;2.17;1.55;;;;;;;;;;4975999;28;20066;-70
2021/09/17 14:07:42;;;;;;;2.33;1.50;;;;;;;;;;4971214;28;20058;-68
2021/09/17 14:10:12;;;;;;;2.33;1.60;;;;;;;;;;4971048;28;20443;-68
2021/09/17 14:12:40;;;;;;;2.72;1.77;;;;;;;;;;4970874;28;20199;-68
2021/09/17 14:15:10;;;;;;;2.75;1.73;;;;;;;;;;4983869;28;20046;-69
2021/09/17 14:17:38;;;;;;;3.78;1.80;;;;;;;;;;4981728;28;20100;-70
2021/09/17 14:20:07;;;;;;;2.05;1.75;;;;;;;;;;4980362;28;20051;-70
2021/09/17 14:22:36;;;;;;;2.42;1.83;;;;;;;;;;4981018;28;20054;-71
2021/09/17 14:25:07;;;;;;;2.60;1.88;;;;;;;;;;4986310;28;20352;-70
2021/09/17 14:27:36;;;;;;;3.20;2.40;;;;;;;;;;4968978;28;20137;-69
2021/09/17 14:30:06;;;;;;;2.75;1.83;;;;;;;;;;4980159;28;20050;-69
2021/09/17 14:32:35;;;;;;;2.80;1.70;;;;;;;;;;4981964;28;20478;-70
2021/09/17 14:35:04;;;;;;;2.42;1.88;;;;;;;;;;4984003;28;20363;-69
2021/09/17 14:37:33;;;;;;;2.28;2.00;;;;;;;;;;4968848;28;20042;-70
2021/09/17 14:40:02;;;;;;;2.90;1.80;;;;;;;;;;4981031;28;20491;-70
2021/09/17 14:42:32;;;;;;;2.58;1.90;;;;;;;;;;4977624;28;20042;-69
2021/09/17 14:45:01;;;;;;;3.05;1.80;;;;;;;;;;4978178;28;20046;-69
2021/09/17 14:47:32;;;;;;;2.95;2.08;;;;;;;;;;4979155;28;20109;-69
2021/09/17 14:50:01;;;;;;;2.15;1.83;;;;;;;;;;4968000;28;20051;-70